sensor_id;sensor_type;location;lat;lon;timestamp;temperature;humidity
19880;DHT22;10102;50.828;4.416;2023-02-01T00:00:21;8.70;99.90
19880;DHT22;10102;50.828;4.416;2023-02-01T00:02:47;8.60;99.90
19880;DHT22;10102;50.828;4.416;2023-02-01T00:05:15;8.50;99.90
19880;DHT22;10102;50.828;4.416;2023-02-01T00:07:42;8.90;99.90
19880;DHT22;10102;50.828;4.416;2023-02-01T00:10:09;8.60;99.90
19880;DHT22;10102;50.828;4.416;2023-02-01T00:12:36;8.60;99.90
19880;DHT22;10102;50.828;4.416;2023-02-01T00:15:02;8.60;99.90
19880;DHT22;10102;50.828;4.416;2023-02-01T00:17:29;8.60;99.90
19880;DHT22;10102;50.828;4.416;2023-02-01T00:19:56;8.60;99.90
19880;DHT22;10102;50.828;4.416;2023-02-01T00:22:22;8.70;99.90
19880;DHT22;10102;50.828;4.416;2023-02-01T00:24:53;8.70;99.90
19880;DHT22;10102;50.828;4.416;2023-02-01T00:27:20;9.40;99.90
19880;DHT22;10102;50.828;4.416;2023-02-01T00:29:47;8.70;99.90
19880;DHT22;10102;50.828;4.416;2023-02-01T00:32:13;8.70;99.90
19880;DHT22;10102;50.828;4.416;2023-02-01T00:34:39;8.40;99.90
19880;DHT22;10102;50.828;4.416;2023-02-01T00:37:05;8.40;99.90
19880;DHT22;10102;50.828;4.416;2023-02-01T00:39:32;8.40;99.90
19880;DHT22;10102;50.828;4.416;2023-02-01T00:42:00;8.40;99.90
19880;DHT22;10102;50.828;4.416;2023-02-01T00:44:29;8.40;99.90
19880;DHT22;10102;50.828;4.416;2023-02-01T00:46:59;8.50;99.90
19880;DHT22;10102;50.828;4.416;2023-02-01T00:49:24;8.50;99.90
19880;DHT22;10102;50.828;4.416;2023-02-01T00:51:52;8.50;99.90
19880;DHT22;10102;50.828;4.416;2023-02-01T00:54:19;8.60;99.90
19880;DHT22;10102;50.828;4.416;2023-02-01T00:56:45;8.60;99.90
19880;DHT22;10102;50.828;4.416;2023-02-01T00:59:11;8.50;99.90
19880;DHT22;10102;50.828;4.416;2023-02-01T01:01:39;8.50;99.90
19880;DHT22;10102;50.828;4.416;2023-02-01T01:04:06;8.60;99.90
19880;DHT22;10102;50.828;4.416;2023-02-01T01:06:33;8.60;99.90
19880;DHT22;10102;50.828;4.416;2023-02-01T01:09:02;8.60;99.90
19880;DHT22;10102;50.828;4.416;2023-02-01T01:11:32;8.60;99.90
19880;DHT22;10102;50.828;4.416;2023-02-01T01:13:59;8.70;99.90
19880;DHT22;10102;50.828;4.416;2023-02-01T01:16:26;8.70;99.90
19880;DHT22;10102;50.828;4.416;2023-02-01T01:18:55;8.60;99.90
19880;DHT22;10102;50.828;4.416;2023-02-01T01:21:23;8.50;99.90
19880;DHT22;10102;50.828;4.416;2023-02-01T01:23:49;8.50;99.90
19880;DHT22;10102;50.828;4.416;2023-02-01T01:26:19;8.50;99.90
19880;DHT22;10102;50.828;4.416;2023-02-01T01:28:47;8.40;99.90
19880;DHT22;10102;50.828;4.416;2023-02-01T01:31:18;8.50;99.90
19880;DHT22;10102;50.828;4.416;2023-02-01T01:33:46;8.40;99.90
19880;DHT22;10102;50.828;4.416;2023-02-01T01:36:14;8.40;99.90
19880;DHT22;10102;50.828;4.416;2023-02-01T01:38:42;8.10;99.90
19880;DHT22;10102;50.828;4.416;2023-02-01T01:41:20;8.30;99.90
19880;DHT22;10102;50.828;4.416;2023-02-01T01:46:19;8.40;99.90
19880;DHT22;10102;50.828;4.416;2023-02-01T01:48:49;8.30;99.90
19880;DHT22;10102;50.828;4.416;2023-02-01T01:51:20;8.30;99.90
19880;DHT22;10102;50.828;4.416;2023-02-01T01:54:18;8.50;99.90
19880;DHT22;10102;50.828;4.416;2023-02-01T01:56:55;8.50;99.90
19880;DHT22;10102;50.828;4.416;2023-02-01T01:59:24;8.40;99.90
19880;DHT22;10102;50.828;4.416;2023-02-01T02:01:51;8.50;99.90
19880;DHT22;10102;50.828;4.416;2023-02-01T02:04:19;8.20;99.90
19880;DHT22;10102;50.828;4.416;2023-02-01T02:09:21;8.40;99.90
19880;DHT22;10102;50.828;4.416;2023-02-01T02:11:48;8.40;99.90
19880;DHT22;10102;50.828;4.416;2023-02-01T02:14:15;8.30;99.90
19880;DHT22;10102;50.828;4.416;2023-02-01T02:19:44;8.30;99.90
19880;DHT22;10102;50.828;4.416;2023-02-01T02:33:55;8.30;99.90
19880;DHT22;10102;50.828;4.416;2023-02-01T02:39:25;8.40;99.90
19880;DHT22;10102;50.828;4.416;2023-02-01T02:44:59;8.30;99.90
19880;DHT22;10102;50.828;4.416;2023-02-01T02:54:04;8.20;99.90
19880;DHT22;10102;50.828;4.416;2023-02-01T02:56:53;8.20;99.90
19880;DHT22;10102;50.828;4.416;2023-02-01T02:59:40;8.10;99.90
19880;DHT22;10102;50.828;4.416;2023-02-01T03:02:27;8.10;99.90
19880;DHT22;10102;50.828;4.416;2023-02-01T03:05:11;8.10;99.90
19880;DHT22;10102;50.828;4.416;2023-02-01T03:08:01;8.00;99.90
19880;DHT22;10102;50.828;4.416;2023-02-01T03:13:45;7.80;99.90
19880;DHT22;10102;50.828;4.416;2023-02-01T03:16:40;7.80;99.90
19880;DHT22;10102;50.828;4.416;2023-02-01T03:19:14;7.80;99.90
19880;DHT22;10102;50.828;4.416;2023-02-01T03:21:45;7.90;99.90
19880;DHT22;10102;50.828;4.416;2023-02-01T03:24:32;7.90;99.90
19880;DHT22;10102;50.828;4.416;2023-02-01T03:27:09;7.90;99.90
19880;DHT22;10102;50.828;4.416;2023-02-01T03:29:46;7.90;99.90
19880;DHT22;10102;50.828;4.416;2023-02-01T03:32:14;7.90;99.90
19880;DHT22;10102;50.828;4.416;2023-02-01T03:34:42;7.90;99.90
19880;DHT22;10102;50.828;4.416;2023-02-01T03:37:12;7.70;99.90
19880;DHT22;10102;50.828;4.416;2023-02-01T03:40:07;7.70;99.90
19880;DHT22;10102;50.828;4.416;2023-02-01T03:42:43;7.80;99.90
19880;DHT22;10102;50.828;4.416;2023-02-01T03:47:52;7.90;99.90
19880;DHT22;10102;50.828;4.416;2023-02-01T03:50:21;7.70;99.90
19880;DHT22;10102;50.828;4.416;2023-02-01T03:53:11;7.60;99.90
19880;DHT22;10102;50.828;4.416;2023-02-01T03:55:41;7.70;99.90
19880;DHT22;10102;50.828;4.416;2023-02-01T03:58:12;7.70;99.90
19880;DHT22;10102;50.828;4.416;2023-02-01T04:00:39;7.70;99.90
19880;DHT22;10102;50.828;4.416;2023-02-01T04:03:07;7.60;99.90
19880;DHT22;10102;50.828;4.416;2023-02-01T04:05:34;7.40;99.90
19880;DHT22;10102;50.828;4.416;2023-02-01T04:08:01;7.50;99.90
19880;DHT22;10102;50.828;4.416;2023-02-01T04:10:27;7.40;99.90
19880;DHT22;10102;50.828;4.416;2023-02-01T04:12:53;7.30;99.90
19880;DHT22;10102;50.828;4.416;2023-02-01T04:15:20;7.30;99.90
19880;DHT22;10102;50.828;4.416;2023-02-01T04:17:49;7.30;99.90
19880;DHT22;10102;50.828;4.416;2023-02-01T04:20:16;7.40;99.90
19880;DHT22;10102;50.828;4.416;2023-02-01T04:22:44;7.30;99.90
19880;DHT22;10102;50.828;4.416;2023-02-01T04:25:09;7.40;99.90
19880;DHT22;10102;50.828;4.416;2023-02-01T04:27:37;7.30;99.90
19880;DHT22;10102;50.828;4.416;2023-02-01T04:30:06;7.20;99.90
19880;DHT22;10102;50.828;4.416;2023-02-01T04:32:37;7.20;99.90
19880;DHT22;10102;50.828;4.416;2023-02-01T04:35:03;7.20;99.90
19880;DHT22;10102;50.828;4.416;2023-02-01T04:37:32;7.10;99.90
19880;DHT22;10102;50.828;4.416;2023-02-01T04:39:58;7.10;99.90
19880;DHT22;10102;50.828;4.416;2023-02-01T04:42:26;7.00;99.90
19880;DHT22;10102;50.828;4.416;2023-02-01T04:44:51;7.10;99.90
19880;DHT22;10102;50.828;4.416;2023-02-01T04:47:17;7.20;99.90
19880;DHT22;10102;50.828;4.416;2023-02-01T04:49:46;7.10;99.90
19880;DHT22;10102;50.828;4.416;2023-02-01T04:52:12;7.40;99.90
19880;DHT22;10102;50.828;4.416;2023-02-01T04:54:37;7.10;99.90
19880;DHT22;10102;50.828;4.416;2023-02-01T04:57:03;7.00;99.90
19880;DHT22;10102;50.828;4.416;2023-02-01T04:59:30;6.90;99.90
19880;DHT22;10102;50.828;4.416;2023-02-01T05:01:57;6.80;99.90
19880;DHT22;10102;50.828;4.416;2023-02-01T05:04:23;6.80;99.90
19880;DHT22;10102;50.828;4.416;2023-02-01T05:06:51;6.80;99.90
19880;DHT22;10102;50.828;4.416;2023-02-01T05:09:16;6.70;99.90
19880;DHT22;10102;50.828;4.416;2023-02-01T05:11:42;6.60;99.90
19880;DHT22;10102;50.828;4.416;2023-02-01T05:14:26;6.50;99.90
19880;DHT22;10102;50.828;4.416;2023-02-01T05:16:53;7.20;99.90
19880;DHT22;10102;50.828;4.416;2023-02-01T05:19:19;6.70;99.90
19880;DHT22;10102;50.828;4.416;2023-02-01T05:21:45;6.70;99.90
19880;DHT22;10102;50.828;4.416;2023-02-01T05:24:11;6.70;99.90
19880;DHT22;10102;50.828;4.416;2023-02-01T05:26:45;6.60;99.90
19880;DHT22;10102;50.828;4.416;2023-02-01T05:29:17;6.60;99.90
19880;DHT22;10102;50.828;4.416;2023-02-01T05:31:48;6.60;99.90
19880;DHT22;10102;50.828;4.416;2023-02-01T05:34:15;6.60;99.90
19880;DHT22;10102;50.828;4.416;2023-02-01T05:36:46;6.50;99.90
19880;DHT22;10102;50.828;4.416;2023-02-01T05:39:13;7.60;99.90
19880;DHT22;10102;50.828;4.416;2023-02-01T05:41:40;6.40;99.90
19880;DHT22;10102;50.828;4.416;2023-02-01T05:44:08;6.70;99.90
19880;DHT22;10102;50.828;4.416;2023-02-01T05:46:37;6.60;99.90
19880;DHT22;10102;50.828;4.416;2023-02-01T05:49:09;6.50;99.90
19880;DHT22;10102;50.828;4.416;2023-02-01T05:51:40;6.30;99.90
19880;DHT22;10102;50.828;4.416;2023-02-01T05:54:09;7.30;99.90
19880;DHT22;10102;50.828;4.416;2023-02-01T05:56:36;6.30;99.90
19880;DHT22;10102;50.828;4.416;2023-02-01T05:59:04;5.90;99.90
19880;DHT22;10102;50.828;4.416;2023-02-01T06:01:30;7.50;99.90
19880;DHT22;10102;50.828;4.416;2023-02-01T06:03:57;6.40;99.90
19880;DHT22;10102;50.828;4.416;2023-02-01T06:06:24;6.30;99.90
19880;DHT22;10102;50.828;4.416;2023-02-01T06:08:50;6.30;99.90
19880;DHT22;10102;50.828;4.416;2023-02-01T06:11:16;6.20;99.90
19880;DHT22;10102;50.828;4.416;2023-02-01T06:13:42;7.00;99.90
19880;DHT22;10102;50.828;4.416;2023-02-01T06:16:08;6.00;99.90
19880;DHT22;10102;50.828;4.416;2023-02-01T06:18:35;6.00;99.90
19880;DHT22;10102;50.828;4.416;2023-02-01T06:21:01;6.10;99.90
19880;DHT22;10102;50.828;4.416;2023-02-01T06:23:30;6.20;99.90
19880;DHT22;10102;50.828;4.416;2023-02-01T06:26:04;6.10;99.90
19880;DHT22;10102;50.828;4.416;2023-02-01T06:28:31;6.10;99.90
19880;DHT22;10102;50.828;4.416;2023-02-01T06:31:03;6.10;99.90
19880;DHT22;10102;50.828;4.416;2023-02-01T06:33:36;6.30;99.90
19880;DHT22;10102;50.828;4.416;2023-02-01T06:36:05;6.30;99.90
19880;DHT22;10102;50.828;4.416;2023-02-01T06:38:32;6.20;99.90
19880;DHT22;10102;50.828;4.416;2023-02-01T06:41:00;6.20;99.90
19880;DHT22;10102;50.828;4.416;2023-02-01T06:43:27;6.00;99.90
19880;DHT22;10102;50.828;4.416;2023-02-01T06:45:58;6.30;99.90
19880;DHT22;10102;50.828;4.416;2023-02-01T06:48:24;6.10;99.90
19880;DHT22;10102;50.828;4.416;2023-02-01T06:50:51;6.10;99.90
19880;DHT22;10102;50.828;4.416;2023-02-01T06:53:17;6.10;99.90
19880;DHT22;10102;50.828;4.416;2023-02-01T06:56:04;6.00;99.90
19880;DHT22;10102;50.828;4.416;2023-02-01T06:58:31;6.00;99.90
19880;DHT22;10102;50.828;4.416;2023-02-01T07:00:58;6.10;99.90
19880;DHT22;10102;50.828;4.416;2023-02-01T07:03:25;6.10;99.90
19880;DHT22;10102;50.828;4.416;2023-02-01T07:05:56;5.60;99.90
19880;DHT22;10102;50.828;4.416;2023-02-01T07:08:26;5.90;99.90
19880;DHT22;10102;50.828;4.416;2023-02-01T07:10:52;5.90;99.90
19880;DHT22;10102;50.828;4.416;2023-02-01T07:13:18;6.00;99.90
19880;DHT22;10102;50.828;4.416;2023-02-01T07:15:44;6.00;99.90
19880;DHT22;10102;50.828;4.416;2023-02-01T07:21:28;6.10;99.90
19880;DHT22;10102;50.828;4.416;2023-02-01T07:23:54;5.90;99.90
19880;DHT22;10102;50.828;4.416;2023-02-01T07:26:22;6.10;99.90
19880;DHT22;10102;50.828;4.416;2023-02-01T07:28:48;6.30;99.90
19880;DHT22;10102;50.828;4.416;2023-02-01T07:31:16;7.40;99.90
19880;DHT22;10102;50.828;4.416;2023-02-01T07:33:48;6.10;99.90
19880;DHT22;10102;50.828;4.416;2023-02-01T07:36:17;6.00;99.90
19880;DHT22;10102;50.828;4.416;2023-02-01T07:38:43;6.10;99.90
19880;DHT22;10102;50.828;4.416;2023-02-01T07:41:09;6.10;99.90
19880;DHT22;10102;50.828;4.416;2023-02-01T07:43:35;6.20;99.90
19880;DHT22;10102;50.828;4.416;2023-02-01T07:46:02;6.00;99.90
19880;DHT22;10102;50.828;4.416;2023-02-01T07:48:29;6.20;99.90
19880;DHT22;10102;50.828;4.416;2023-02-01T07:51:02;6.20;99.90
19880;DHT22;10102;50.828;4.416;2023-02-01T07:53:29;6.30;99.90
19880;DHT22;10102;50.828;4.416;2023-02-01T07:55:57;6.30;99.90
19880;DHT22;10102;50.828;4.416;2023-02-01T07:58:24;6.40;99.90
19880;DHT22;10102;50.828;4.416;2023-02-01T08:00:52;6.20;99.90
19880;DHT22;10102;50.828;4.416;2023-02-01T08:03:37;6.50;99.90
19880;DHT22;10102;50.828;4.416;2023-02-01T08:06:04;6.50;99.90
19880;DHT22;10102;50.828;4.416;2023-02-01T08:08:30;6.70;99.90
19880;DHT22;10102;50.828;4.416;2023-02-01T08:11:01;6.70;99.90
19880;DHT22;10102;50.828;4.416;2023-02-01T08:13:29;6.60;99.90
19880;DHT22;10102;50.828;4.416;2023-02-01T08:15:59;6.70;99.90
19880;DHT22;10102;50.828;4.416;2023-02-01T08:18:32;6.60;99.90
19880;DHT22;10102;50.828;4.416;2023-02-01T08:21:11;6.60;99.90
19880;DHT22;10102;50.828;4.416;2023-02-01T08:23:39;6.60;99.90
19880;DHT22;10102;50.828;4.416;2023-02-01T08:28:34;6.50;99.90
19880;DHT22;10102;50.828;4.416;2023-02-01T08:31:04;6.30;99.90
19880;DHT22;10102;50.828;4.416;2023-02-01T08:33:30;6.40;99.90
19880;DHT22;10102;50.828;4.416;2023-02-01T08:35:56;6.50;99.90
19880;DHT22;10102;50.828;4.416;2023-02-01T08:38:23;6.60;99.90
19880;DHT22;10102;50.828;4.416;2023-02-01T08:40:49;6.50;99.90
19880;DHT22;10102;50.828;4.416;2023-02-01T08:43:15;6.60;99.90
19880;DHT22;10102;50.828;4.416;2023-02-01T08:45:42;6.80;99.90
19880;DHT22;10102;50.828;4.416;2023-02-01T08:48:07;6.60;99.90
19880;DHT22;10102;50.828;4.416;2023-02-01T08:50:33;7.00;99.90
19880;DHT22;10102;50.828;4.416;2023-02-01T08:52:59;7.20;99.90
19880;DHT22;10102;50.828;4.416;2023-02-01T08:55:25;7.20;99.90
19880;DHT22;10102;50.828;4.416;2023-02-01T08:57:52;7.20;99.90
19880;DHT22;10102;50.828;4.416;2023-02-01T09:00:19;7.10;99.90
19880;DHT22;10102;50.828;4.416;2023-02-01T09:02:45;7.20;99.90
19880;DHT22;10102;50.828;4.416;2023-02-01T09:05:11;7.20;99.90
19880;DHT22;10102;50.828;4.416;2023-02-01T09:07:38;7.10;99.90
19880;DHT22;10102;50.828;4.416;2023-02-01T09:10:04;7.20;99.90
19880;DHT22;10102;50.828;4.416;2023-02-01T09:12:32;7.30;99.90
19880;DHT22;10102;50.828;4.416;2023-02-01T09:14:59;7.50;99.90
19880;DHT22;10102;50.828;4.416;2023-02-01T09:17:29;7.60;99.90
19880;DHT22;10102;50.828;4.416;2023-02-01T09:19:55;7.30;99.90
19880;DHT22;10102;50.828;4.416;2023-02-01T09:22:21;7.40;99.90
19880;DHT22;10102;50.828;4.416;2023-02-01T09:24:47;7.20;99.90
19880;DHT22;10102;50.828;4.416;2023-02-01T09:27:13;7.50;99.90
19880;DHT22;10102;50.828;4.416;2023-02-01T09:29:39;7.50;99.90
19880;DHT22;10102;50.828;4.416;2023-02-01T09:32:05;7.60;99.90
19880;DHT22;10102;50.828;4.416;2023-02-01T09:34:32;7.60;99.90
19880;DHT22;10102;50.828;4.416;2023-02-01T09:36:59;7.60;99.90
19880;DHT22;10102;50.828;4.416;2023-02-01T09:39:25;7.60;99.90
19880;DHT22;10102;50.828;4.416;2023-02-01T09:47:25;7.70;99.90
19880;DHT22;10102;50.828;4.416;2023-02-01T09:52:36;7.70;99.90
19880;DHT22;10102;50.828;4.416;2023-02-01T09:55:24;7.80;99.90
19880;DHT22;10102;50.828;4.416;2023-02-01T09:58:00;7.90;99.90
19880;DHT22;10102;50.828;4.416;2023-02-01T10:00:35;8.00;99.90
19880;DHT22;10102;50.828;4.416;2023-02-01T10:03:01;8.00;99.90
19880;DHT22;10102;50.828;4.416;2023-02-01T10:08:37;8.40;99.90
19880;DHT22;10102;50.828;4.416;2023-02-01T10:14:02;9.00;99.90
19880;DHT22;10102;50.828;4.416;2023-02-01T10:19:26;9.60;99.90
19880;DHT22;10102;50.828;4.416;2023-02-01T10:22:38;9.90;99.90
19880;DHT22;10102;50.828;4.416;2023-02-01T10:27:39;10.10;99.90
19880;DHT22;10102;50.828;4.416;2023-02-01T10:30:20;10.10;99.90
19880;DHT22;10102;50.828;4.416;2023-02-01T10:33:25;10.20;99.90
19880;DHT22;10102;50.828;4.416;2023-02-01T10:35:58;10.60;99.90
19880;DHT22;10102;50.828;4.416;2023-02-01T10:38:28;10.80;99.90
19880;DHT22;10102;50.828;4.416;2023-02-01T10:41:07;10.80;99.90
19880;DHT22;10102;50.828;4.416;2023-02-01T10:43:37;11.30;99.90
19880;DHT22;10102;50.828;4.416;2023-02-01T10:46:05;12.20;99.90
19880;DHT22;10102;50.828;4.416;2023-02-01T10:48:32;12.80;99.90
19880;DHT22;10102;50.828;4.416;2023-02-01T10:51:14;13.40;99.90
19880;DHT22;10102;50.828;4.416;2023-02-01T10:56:14;15.60;99.90
19880;DHT22;10102;50.828;4.416;2023-02-01T10:58:47;15.80;99.90
19880;DHT22;10102;50.828;4.416;2023-02-01T11:01:24;16.40;99.90
19880;DHT22;10102;50.828;4.416;2023-02-01T11:04:04;16.60;99.90
19880;DHT22;10102;50.828;4.416;2023-02-01T11:06:39;16.10;99.90
19880;DHT22;10102;50.828;4.416;2023-02-01T11:11:33;15.50;99.90
19880;DHT22;10102;50.828;4.416;2023-02-01T11:14:18;14.90;99.90
19880;DHT22;10102;50.828;4.416;2023-02-01T11:16:49;14.10;99.90
19880;DHT22;10102;50.828;4.416;2023-02-01T11:19:17;14.30;99.90
19880;DHT22;10102;50.828;4.416;2023-02-01T11:21:50;14.00;99.90
19880;DHT22;10102;50.828;4.416;2023-02-01T11:24:37;14.40;99.90
19880;DHT22;10102;50.828;4.416;2023-02-01T11:27:14;13.70;99.90
19880;DHT22;10102;50.828;4.416;2023-02-01T11:29:43;14.30;99.90
19880;DHT22;10102;50.828;4.416;2023-02-01T11:32:12;15.70;99.90
19880;DHT22;10102;50.828;4.416;2023-02-01T11:34:45;15.90;99.90
19880;DHT22;10102;50.828;4.416;2023-02-01T11:37:38;16.00;99.90
19880;DHT22;10102;50.828;4.416;2023-02-01T11:40:25;16.10;99.90
19880;DHT22;10102;50.828;4.416;2023-02-01T11:42:58;15.10;99.90
19880;DHT22;10102;50.828;4.416;2023-02-01T11:45:30;14.40;99.90
19880;DHT22;10102;50.828;4.416;2023-02-01T11:47:57;13.60;99.90
19880;DHT22;10102;50.828;4.416;2023-02-01T12:16:00;14.10;99.90
19880;DHT22;10102;50.828;4.416;2023-02-01T12:36:07;15.70;99.90
19880;DHT22;10102;50.828;4.416;2023-02-01T12:41:02;15.60;99.90
19880;DHT22;10102;50.828;4.416;2023-02-01T12:46:22;16.20;99.90
19880;DHT22;10102;50.828;4.416;2023-02-01T12:48:53;15.80;99.90
19880;DHT22;10102;50.828;4.416;2023-02-01T12:51:24;16.10;99.90
19880;DHT22;10102;50.828;4.416;2023-02-01T12:57:37;15.90;99.90
19880;DHT22;10102;50.828;4.416;2023-02-01T13:00:41;14.40;99.90
19880;DHT22;10102;50.828;4.416;2023-02-01T13:11:48;13.20;99.90
19880;DHT22;10102;50.828;4.416;2023-02-01T13:14:52;12.40;99.90
19880;DHT22;10102;50.828;4.416;2023-02-01T13:17:29;12.50;99.90
19880;DHT22;10102;50.828;4.416;2023-02-01T13:20:04;12.60;99.90
19880;DHT22;10102;50.828;4.416;2023-02-01T13:22:32;12.60;99.90
19880;DHT22;10102;50.828;4.416;2023-02-01T13:27:35;12.60;99.90
19880;DHT22;10102;50.828;4.416;2023-02-01T13:30:24;12.50;99.90
19880;DHT22;10102;50.828;4.416;2023-02-01T13:38:37;12.10;99.90
19880;DHT22;10102;50.828;4.416;2023-02-01T13:41:25;12.00;99.90
19880;DHT22;10102;50.828;4.416;2023-02-01T13:43:58;12.20;99.90
19880;DHT22;10102;50.828;4.416;2023-02-01T13:46:24;12.20;99.90
19880;DHT22;10102;50.828;4.416;2023-02-01T13:49:01;12.00;99.90
19880;DHT22;10102;50.828;4.416;2023-02-01T13:51:44;12.00;99.90
19880;DHT22;10102;50.828;4.416;2023-02-01T13:56:59;12.00;99.90
19880;DHT22;10102;50.828;4.416;2023-02-01T14:10:56;11.70;99.90
19880;DHT22;10102;50.828;4.416;2023-02-01T14:18:49;12.20;99.90
19880;DHT22;10102;50.828;4.416;2023-02-01T14:34:35;11.80;99.90
19880;DHT22;10102;50.828;4.416;2023-02-01T14:37:11;11.70;99.90
19880;DHT22;10102;50.828;4.416;2023-02-01T14:42:35;11.50;99.90
19880;DHT22;10102;50.828;4.416;2023-02-01T14:47:55;11.20;99.90
19880;DHT22;10102;50.828;4.416;2023-02-01T14:50:46;10.90;99.90
19880;DHT22;10102;50.828;4.416;2023-02-01T14:53:14;11.10;99.90
19880;DHT22;10102;50.828;4.416;2023-02-01T14:55:53;11.20;99.90
19880;DHT22;10102;50.828;4.416;2023-02-01T15:01:33;11.20;99.90
19880;DHT22;10102;50.828;4.416;2023-02-01T15:04:14;11.20;99.90
19880;DHT22;10102;50.828;4.416;2023-02-01T15:06:48;11.10;99.90
19880;DHT22;10102;50.828;4.416;2023-02-01T15:11:59;11.40;99.90
19880;DHT22;10102;50.828;4.416;2023-02-01T15:14:26;11.40;99.90
19880;DHT22;10102;50.828;4.416;2023-02-01T15:16:54;11.20;99.90
19880;DHT22;10102;50.828;4.416;2023-02-01T15:19:27;11.10;99.90
19880;DHT22;10102;50.828;4.416;2023-02-01T15:21:56;11.00;99.90
19880;DHT22;10102;50.828;4.416;2023-02-01T15:24:31;10.90;99.90
19880;DHT22;10102;50.828;4.416;2023-02-01T15:27:04;10.80;99.90
19880;DHT22;10102;50.828;4.416;2023-02-01T15:29:32;10.80;99.90
19880;DHT22;10102;50.828;4.416;2023-02-01T15:31:59;10.70;99.90
19880;DHT22;10102;50.828;4.416;2023-02-01T15:34:45;10.70;99.90
19880;DHT22;10102;50.828;4.416;2023-02-01T15:37:14;10.80;99.90
19880;DHT22;10102;50.828;4.416;2023-02-01T15:42:53;10.90;99.90
19880;DHT22;10102;50.828;4.416;2023-02-01T15:45:22;10.80;99.90
19880;DHT22;10102;50.828;4.416;2023-02-01T15:47:53;10.90;99.90
19880;DHT22;10102;50.828;4.416;2023-02-01T15:50:21;10.90;99.90
19880;DHT22;10102;50.828;4.416;2023-02-01T15:52:52;11.00;99.90
19880;DHT22;10102;50.828;4.416;2023-02-01T15:57:48;10.80;99.90
19880;DHT22;10102;50.828;4.416;2023-02-01T16:00:23;10.80;99.90
19880;DHT22;10102;50.828;4.416;2023-02-01T16:03:04;10.70;99.90
19880;DHT22;10102;50.828;4.416;2023-02-01T16:08:14;10.70;99.90
19880;DHT22;10102;50.828;4.416;2023-02-01T16:10:44;10.60;99.90
19880;DHT22;10102;50.828;4.416;2023-02-01T16:13:11;10.40;99.90
19880;DHT22;10102;50.828;4.416;2023-02-01T16:15:38;10.30;99.90
19880;DHT22;10102;50.828;4.416;2023-02-01T16:18:06;10.30;99.90
19880;DHT22;10102;50.828;4.416;2023-02-01T16:20:38;10.30;99.90
19880;DHT22;10102;50.828;4.416;2023-02-01T16:23:06;10.40;99.90
19880;DHT22;10102;50.828;4.416;2023-02-01T16:25:33;10.30;99.90
19880;DHT22;10102;50.828;4.416;2023-02-01T16:27:59;10.30;99.90
19880;DHT22;10102;50.828;4.416;2023-02-01T16:30:28;10.40;99.90
19880;DHT22;10102;50.828;4.416;2023-02-01T16:32:56;10.30;99.90
19880;DHT22;10102;50.828;4.416;2023-02-01T16:35:27;10.40;99.90
19880;DHT22;10102;50.828;4.416;2023-02-01T16:37:55;10.50;99.90
19880;DHT22;10102;50.828;4.416;2023-02-01T16:40:21;10.60;99.90
19880;DHT22;10102;50.828;4.416;2023-02-01T16:42:50;10.70;99.90
19880;DHT22;10102;50.828;4.416;2023-02-01T16:45:17;10.40;99.90
19880;DHT22;10102;50.828;4.416;2023-02-01T16:47:54;10.40;99.90
19880;DHT22;10102;50.828;4.416;2023-02-01T16:50:24;10.50;99.90
19880;DHT22;10102;50.828;4.416;2023-02-01T16:52:52;10.50;99.90
19880;DHT22;10102;50.828;4.416;2023-02-01T16:55:20;10.50;99.90
19880;DHT22;10102;50.828;4.416;2023-02-01T16:57:47;10.50;99.90
19880;DHT22;10102;50.828;4.416;2023-02-01T17:00:13;10.30;99.90
19880;DHT22;10102;50.828;4.416;2023-02-01T17:02:45;10.30;99.90
19880;DHT22;10102;50.828;4.416;2023-02-01T17:05:11;10.30;99.90
19880;DHT22;10102;50.828;4.416;2023-02-01T17:07:38;10.20;99.90
19880;DHT22;10102;50.828;4.416;2023-02-01T17:10:08;10.20;99.90
19880;DHT22;10102;50.828;4.416;2023-02-01T17:12:41;10.20;99.90
19880;DHT22;10102;50.828;4.416;2023-02-01T17:15:08;10.20;99.90
19880;DHT22;10102;50.828;4.416;2023-02-01T17:17:38;10.30;99.90
19880;DHT22;10102;50.828;4.416;2023-02-01T17:20:04;10.20;99.90
19880;DHT22;10102;50.828;4.416;2023-02-01T17:22:33;10.30;99.90
19880;DHT22;10102;50.828;4.416;2023-02-01T17:25:01;10.40;99.90
19880;DHT22;10102;50.828;4.416;2023-02-01T17:27:27;10.30;99.90
19880;DHT22;10102;50.828;4.416;2023-02-01T17:29:55;10.30;99.90
19880;DHT22;10102;50.828;4.416;2023-02-01T17:32:24;10.30;99.90
19880;DHT22;10102;50.828;4.416;2023-02-01T17:34:50;10.10;99.90
19880;DHT22;10102;50.828;4.416;2023-02-01T17:37:24;10.10;99.90
19880;DHT22;10102;50.828;4.416;2023-02-01T17:39:51;10.20;99.90
19880;DHT22;10102;50.828;4.416;2023-02-01T17:42:20;10.10;99.90
19880;DHT22;10102;50.828;4.416;2023-02-01T17:44:51;10.10;99.90
19880;DHT22;10102;50.828;4.416;2023-02-01T17:47:19;10.10;99.90
19880;DHT22;10102;50.828;4.416;2023-02-01T17:49:46;10.00;99.90
19880;DHT22;10102;50.828;4.416;2023-02-01T17:52:17;10.10;99.90
19880;DHT22;10102;50.828;4.416;2023-02-01T17:54:43;10.00;99.90
19880;DHT22;10102;50.828;4.416;2023-02-01T17:57:12;10.00;99.90
19880;DHT22;10102;50.828;4.416;2023-02-01T17:59:39;9.90;99.90
19880;DHT22;10102;50.828;4.416;2023-02-01T18:02:20;9.90;99.90
19880;DHT22;10102;50.828;4.416;2023-02-01T18:04:46;9.90;99.90
19880;DHT22;10102;50.828;4.416;2023-02-01T18:07:18;9.90;99.90
19880;DHT22;10102;50.828;4.416;2023-02-01T18:09:44;9.90;99.90
19880;DHT22;10102;50.828;4.416;2023-02-01T18:12:21;9.90;99.90
19880;DHT22;10102;50.828;4.416;2023-02-01T18:14:48;10.10;99.90
19880;DHT22;10102;50.828;4.416;2023-02-01T18:17:14;10.10;99.90
19880;DHT22;10102;50.828;4.416;2023-02-01T18:19:40;10.00;99.90
19880;DHT22;10102;50.828;4.416;2023-02-01T18:22:15;10.10;99.90
19880;DHT22;10102;50.828;4.416;2023-02-01T20:50:08;8.70;99.90
19880;DHT22;10102;50.828;4.416;2023-02-01T20:55:03;9.00;99.90
19880;DHT22;10102;50.828;4.416;2023-02-01T21:09:39;9.80;99.90
19880;DHT22;10102;50.828;4.416;2023-02-01T21:12:07;9.80;99.90
19880;DHT22;10102;50.828;4.416;2023-02-01T21:17:00;9.70;99.90
19880;DHT22;10102;50.828;4.416;2023-02-01T21:19:25;9.50;99.90
19880;DHT22;10102;50.828;4.416;2023-02-01T21:21:52;13.00;99.90
19880;DHT22;10102;50.828;4.416;2023-02-01T21:24:18;9.50;99.90
19880;DHT22;10102;50.828;4.416;2023-02-01T21:29:12;9.60;99.90
19880;DHT22;10102;50.828;4.416;2023-02-01T21:31:39;9.70;99.90
19880;DHT22;10102;50.828;4.416;2023-02-01T21:34:05;10.20;99.90
19880;DHT22;10102;50.828;4.416;2023-02-01T21:36:32;9.70;99.90
19880;DHT22;10102;50.828;4.416;2023-02-01T21:39:03;9.50;99.90
19880;DHT22;10102;50.828;4.416;2023-02-01T21:41:33;9.70;99.90
19880;DHT22;10102;50.828;4.416;2023-02-01T21:44:19;10.10;99.90
19880;DHT22;10102;50.828;4.416;2023-02-01T21:46:46;9.70;99.90
19880;DHT22;10102;50.828;4.416;2023-02-01T21:49:14;9.60;99.90
19880;DHT22;10102;50.828;4.416;2023-02-01T21:51:41;9.70;99.90
19880;DHT22;10102;50.828;4.416;2023-02-01T21:54:07;10.00;99.90